Alamo, Nevada
Current Conditions -  °F | °C
As of 8:58 PM on Thursday 30 Oct 2014 (Local Time) from KINS Reporting Station
Overcast Overcast  
Wind Chill: 72°   Ceiling: 20000
Heat Index: 72°   Visibility: 10mi
Dew Point: 24°   Wind: 13mph
Humidity: 17%   Direction: 100°E
Pressure: 29.99"   Gusts: NA
Location:  37.36°N, 115.16°W
Report Text: KINS 310358Z AUTO 10011KT 10SM BKN200 OVC220 22/M04 A2999 RMK AO2 SLP127 T02221045 $
Loading
Personal Weather Stations






























Interactive Weather Map New forecast layout! Learn more

10-Day Weather Forecast

Advertisements
Track Severe Weather on mobile